createdAt,value
2023-04-26T00:01:38.690Z,101836.25
2023-04-26T00:04:05.633Z,101835.31
2023-04-26T00:06:32.597Z,101838.22
2023-04-26T00:08:59.268Z,101838.69
2023-04-26T00:11:31.400Z,101839.22
2023-04-26T00:14:00.099Z,101835.06
2023-04-26T00:16:26.876Z,101841.41
2023-04-26T00:18:54.928Z,101833.63
2023-04-26T00:21:22.108Z,101839.00
2023-04-26T00:23:49.224Z,101842.63
2023-04-26T00:26:16.093Z,101834.97
2023-04-26T00:28:42.953Z,101843.13
2023-04-26T00:31:15.936Z,101834.53
2023-04-26T00:33:42.814Z,101842.66
2023-04-26T00:36:10.986Z,101848.22
2023-04-26T00:38:37.807Z,101847.50
2023-04-26T00:41:04.602Z,101835.38
2023-04-26T00:43:31.312Z,101845.09
2023-04-26T00:45:58.457Z,101843.56
2023-04-26T00:48:26.487Z,101845.72
2023-04-26T00:50:53.279Z,101838.06
2023-04-26T00:53:21.839Z,101840.13
2023-04-26T00:55:49.397Z,101835.69
2023-04-26T00:58:16.256Z,101832.22
2023-04-26T01:00:43.016Z,101833.31
2023-04-26T01:03:12.552Z,101823.25
2023-04-26T01:05:40.999Z,101834.78
2023-04-26T01:08:07.811Z,101833.09
2023-04-26T01:10:36.062Z,101828.78
2023-04-26T01:13:03.792Z,101835.84
2023-04-26T01:15:31.005Z,101835.13
2023-04-26T01:17:57.785Z,101833.59
2023-04-26T01:20:26.124Z,101833.72
2023-04-26T01:22:54.344Z,101844.25
2023-04-26T01:25:21.485Z,101835.06
2023-04-26T01:27:48.420Z,101838.63
2023-04-26T01:30:15.224Z,101837.91
2023-04-26T01:32:42.327Z,101839.00
2023-04-26T01:35:12.655Z,101837.47
2023-04-26T01:37:39.382Z,101839.50
2023-04-26T01:40:09.900Z,101843.22
2023-04-26T01:42:36.663Z,101845.13
2023-04-26T01:45:03.999Z,101843.94
2023-04-26T01:47:30.764Z,101840.59
2023-04-26T01:49:57.631Z,101848.38
2023-04-26T01:52:24.504Z,101847.66
2023-04-26T01:54:51.429Z,101842.50
2023-04-26T01:57:19.858Z,101844.31
2023-04-26T01:59:46.670Z,101845.28
2023-04-26T02:02:13.381Z,101837.59
2023-04-26T02:04:40.233Z,101835.22
2023-04-26T02:07:07.204Z,101840.00
2023-04-26T02:09:34.019Z,101845.63
2023-04-26T02:12:00.758Z,101838.13
2023-04-26T02:14:28.806Z,101842.66
2023-04-26T02:16:57.447Z,101845.50
2023-04-26T02:19:24.282Z,101837.72
2023-04-26T02:21:55.830Z,101836.09
2023-04-26T02:24:23.173Z,101837.72
2023-04-26T02:26:49.924Z,101842.19
2023-04-26T02:29:16.877Z,101843.84
2023-04-26T02:31:44.937Z,101841.19
2023-04-26T02:34:12.315Z,101845.63
2023-04-26T02:36:40.059Z,101844.94
2023-04-26T02:39:07.579Z,101850.41
2023-04-26T02:41:34.439Z,101842.63
2023-04-26T02:44:01.113Z,101841.78
2023-04-26T02:46:27.877Z,101843.38
2023-04-26T02:48:56.161Z,101838.22
2023-04-26T02:51:23.085Z,101835.59
2023-04-26T02:53:49.943Z,101834.28
2023-04-26T02:56:16.777Z,101841.31
2023-04-26T02:58:43.533Z,101834.63
2023-04-26T03:01:10.458Z,101833.06
2023-04-26T03:03:37.797Z,101832.47
2023-04-26T03:06:06.812Z,101832.72
2023-04-26T03:08:35.352Z,101832.72
2023-04-26T03:11:02.162Z,101836.19
2023-04-26T03:13:29.323Z,101835.34
2023-04-26T03:15:56.102Z,101829.25
2023-04-26T03:18:22.915Z,101833.78
2023-04-26T03:20:50.281Z,101830.31
2023-04-26T03:23:18.428Z,101829.59
2023-04-26T03:25:45.861Z,101827.81
2023-04-26T03:28:14.883Z,101826.97
2023-04-26T03:30:42.801Z,101825.19
2023-04-26T03:33:09.735Z,101828.75
2023-04-26T03:35:36.916Z,101827.94
2023-04-26T03:38:03.659Z,101828.16
2023-04-26T03:40:31.815Z,101826.47
2023-04-26T03:42:58.498Z,101827.44
2023-04-26T03:45:26.779Z,101819.78
2023-04-26T03:47:53.553Z,101819.78
2023-04-26T03:50:20.441Z,101816.31
2023-04-26T03:52:47.175Z,101827.09
2023-04-26T03:55:13.988Z,101827.19
2023-04-26T03:57:43.623Z,101825.50
2023-04-26T04:00:13.758Z,101823.84
2023-04-26T04:02:41.181Z,101816.06
2023-04-26T04:05:09.438Z,101813.53
2023-04-26T04:07:36.189Z,101816.31
2023-04-26T04:10:03.415Z,101815.47
2023-04-26T04:12:30.094Z,101819.88
2023-04-26T04:14:58.099Z,101822.63
2023-04-26T04:17:25.010Z,101825.38
2023-04-26T04:19:51.675Z,101825.38
2023-04-26T04:22:18.418Z,101831.47
2023-04-26T04:24:45.193Z,101821.91
2023-04-26T04:27:12.146Z,101832.56
2023-04-26T04:29:38.856Z,101827.31
2023-04-26T04:32:09.053Z,101829.19
2023-04-26T04:34:36.277Z,101825.00
2023-04-26T04:37:04.196Z,101827.72
2023-04-26T04:39:31.048Z,101820.00
2023-04-26T04:41:58.402Z,101825.94
2023-04-26T04:44:27.007Z,101821.63
2023-04-26T04:46:54.043Z,101825.94
2023-04-26T04:49:22.414Z,101826.91
2023-04-26T04:51:49.169Z,101830.25
2023-04-26T04:54:18.131Z,101830.16
2023-04-26T04:56:45.351Z,101832.78
2023-04-26T04:59:12.224Z,101836.13
2023-04-26T05:01:39.011Z,101838.63
2023-04-26T05:04:07.528Z,101836.00
2023-04-26T05:06:36.278Z,101840.19
2023-04-26T05:09:05.325Z,101847.03
2023-04-26T05:11:33.094Z,101835.41
2023-04-26T05:13:59.960Z,101840.44
2023-04-26T05:16:26.719Z,101846.56
2023-04-26T05:18:53.946Z,101844.66
2023-04-26T05:21:22.082Z,101853.03
2023-04-26T05:23:50.413Z,101847.50
2023-04-26T05:26:19.118Z,101849.09
2023-04-26T05:28:45.917Z,101854.97
2023-04-26T05:31:13.046Z,101853.88
2023-04-26T05:33:39.852Z,101862.38
2023-04-26T05:36:09.270Z,101850.75
2023-04-26T05:38:37.075Z,101856.63
2023-04-26T05:41:05.252Z,101859.03
2023-04-26T05:43:32.016Z,101857.84
2023-04-26T05:45:58.781Z,101858.44
2023-04-26T05:48:25.997Z,101861.56
2023-04-26T05:50:53.188Z,101869.19
2023-04-26T05:53:20.713Z,101864.44
2023-04-26T05:55:47.496Z,101857.13
2023-04-26T05:58:15.786Z,101868.28
2023-04-26T06:00:43.046Z,101877.38
2023-04-26T06:03:10.099Z,101869.09
2023-04-26T06:05:38.412Z,101871.22
2023-04-26T06:08:11.514Z,101871.47
2023-04-26T06:10:38.303Z,101869.31
2023-04-26T06:13:05.156Z,101870.50
2023-04-26T06:15:34.138Z,101871.19
2023-04-26T06:18:01.076Z,101871.50
2023-04-26T06:20:28.100Z,101884.75
2023-04-26T06:22:55.000Z,101883.22
2023-04-26T06:25:21.940Z,101883.13
2023-04-26T06:27:48.819Z,101878.03
2023-04-26T06:30:16.213Z,101874.53
2023-04-26T06:32:44.527Z,101868.38
2023-04-26T06:35:14.592Z,101874.69
2023-04-26T06:37:41.646Z,101876.28
2023-04-26T06:40:09.542Z,101873.78
2023-04-26T06:42:37.927Z,101876.59
2023-04-26T06:45:05.520Z,101876.03
2023-04-26T06:47:32.489Z,101873.84
2023-04-26T06:50:02.700Z,101876.19
2023-04-26T06:52:30.040Z,101870.66
2023-04-26T06:54:57.770Z,101878.47
2023-04-26T06:57:24.817Z,101875.38
2023-04-26T06:59:51.629Z,101881.09
2023-04-26T07:02:18.576Z,101878.19
2023-04-26T07:04:45.858Z,101881.38
2023-04-26T07:07:15.488Z,101889.91
2023-04-26T07:09:42.274Z,101892.25
2023-04-26T07:12:11.469Z,101886.00
2023-04-26T07:14:43.377Z,101890.31
2023-04-26T07:17:10.578Z,101889.34
2023-04-26T07:19:37.647Z,101888.06
2023-04-26T07:22:04.868Z,101885.88
2023-04-26T07:24:33.350Z,101891.72
2023-04-26T07:27:00.175Z,101885.31
2023-04-26T07:29:27.876Z,101890.06
2023-04-26T07:31:57.271Z,101890.75
2023-04-26T07:34:24.334Z,101886.84
2023-04-26T07:36:51.077Z,101877.81
2023-04-26T07:39:18.178Z,101878.22
2023-04-26T07:41:47.659Z,101881.44
2023-04-26T07:44:14.395Z,101876.53
2023-04-26T07:46:42.145Z,101876.94
2023-04-26T07:49:09.094Z,101870.53
2023-04-26T07:51:36.546Z,101875.41
2023-04-26T07:54:03.456Z,101874.16
2023-04-26T07:56:30.367Z,101876.50
2023-04-26T07:58:58.627Z,101874.25
2023-04-26T08:01:25.746Z,101875.78
2023-04-26T08:03:53.472Z,101873.72
2023-04-26T08:06:20.775Z,101874.13
2023-04-26T08:08:50.776Z,101882.59
2023-04-26T08:11:18.342Z,101879.53
2023-04-26T08:13:45.854Z,101880.06
2023-04-26T08:16:14.533Z,101884.13
2023-04-26T08:18:41.863Z,101884.69
2023-04-26T08:21:10.678Z,101892.34
2023-04-26T08:23:37.615Z,101894.56
2023-04-26T08:26:04.547Z,101891.63
2023-04-26T08:28:31.576Z,101897.47
2023-04-26T08:30:58.646Z,101893.56
2023-04-26T08:33:26.914Z,101890.59
2023-04-26T08:35:53.710Z,101892.66
2023-04-26T08:38:22.757Z,101886.94
2023-04-26T08:40:53.802Z,101886.22
2023-04-26T08:43:21.472Z,101889.13
2023-04-26T08:45:48.946Z,101889.50
2023-04-26T08:48:18.180Z,101893.50
2023-04-26T08:50:46.885Z,101893.94
2023-04-26T08:53:18.331Z,101889.16
2023-04-26T08:55:48.461Z,101890.81
2023-04-26T08:58:16.898Z,101887.19
2023-04-26T09:00:45.410Z,101888.03
2023-04-26T09:03:12.555Z,101887.72
2023-04-26T09:05:40.353Z,101887.56
2023-04-26T09:08:09.496Z,101883.25
2023-04-26T09:10:36.377Z,101883.25
2023-04-26T09:13:03.254Z,101882.59
2023-04-26T09:15:30.097Z,101881.56
2023-04-26T09:17:57.217Z,101890.22
2023-04-26T09:20:27.902Z,101880.31
2023-04-26T09:23:07.437Z,101866.34
2023-04-26T09:25:36.812Z,101877.66
2023-04-26T09:28:18.564Z,101874.69
2023-04-26T09:30:45.578Z,101872.34
2023-04-26T09:33:12.434Z,101866.59
2023-04-26T09:35:40.494Z,101874.63
2023-04-26T09:38:12.798Z,101870.88
2023-04-26T09:40:44.666Z,101869.06
2023-04-26T09:43:13.181Z,101875.72
2023-04-26T09:45:46.091Z,101882.53
2023-04-26T09:48:17.623Z,101880.03
2023-04-26T09:50:48.633Z,101887.16
2023-04-26T09:53:29.900Z,101889.28
2023-04-26T09:56:09.582Z,101883.44
2023-04-26T09:58:38.913Z,101885.25
2023-04-26T10:01:08.102Z,101887.91
2023-04-26T10:03:36.162Z,101892.50
2023-04-26T10:06:04.334Z,101881.91
2023-04-26T10:08:32.589Z,101884.41
2023-04-26T10:11:04.248Z,101883.72
2023-04-26T10:13:32.823Z,101876.78
2023-04-26T10:16:00.296Z,101881.06
2023-04-26T10:18:27.405Z,101880.94
2023-04-26T10:20:58.480Z,101882.47
2023-04-26T10:23:28.390Z,101878.69
2023-04-26T10:25:55.846Z,101872.22
2023-04-26T10:28:56.160Z,101879.19
2023-04-26T10:32:06.202Z,101874.72
2023-04-26T10:34:34.853Z,101880.72
2023-04-26T10:37:09.544Z,101884.88
2023-04-26T10:39:36.994Z,101872.31
2023-04-26T10:42:24.281Z,101880.81
2023-04-26T10:44:52.306Z,101876.16
2023-04-26T10:47:27.123Z,101872.38
2023-04-26T10:50:05.729Z,101879.06
2023-04-26T10:52:34.458Z,101876.25
2023-04-26T10:55:02.778Z,101868.16
2023-04-26T10:57:59.811Z,101874.28
2023-04-26T11:00:32.351Z,101872.31
2023-04-26T11:03:15.474Z,101875.63
2023-04-26T11:05:52.377Z,101874.66
2023-04-26T11:08:20.744Z,101863.75
2023-04-26T11:10:52.540Z,101868.88
2023-04-26T11:13:20.306Z,101873.22
2023-04-26T11:15:49.995Z,101867.25
2023-04-26T11:18:23.357Z,101867.16
2023-04-26T11:20:50.267Z,101857.16
2023-04-26T11:23:18.808Z,101865.78
2023-04-26T11:25:45.938Z,101860.03
2023-04-26T11:28:12.841Z,101859.56
2023-04-26T11:30:39.658Z,101858.94
2023-04-26T11:33:06.629Z,101860.34
2023-04-26T11:35:36.049Z,101852.72
2023-04-26T11:38:10.585Z,101852.25
2023-04-26T11:40:37.510Z,101850.16
2023-04-26T11:43:05.746Z,101854.97
2023-04-26T11:45:33.793Z,101857.50
2023-04-26T11:48:02.084Z,101853.72
2023-04-26T11:50:31.355Z,101849.19
2023-04-26T11:53:00.954Z,101846.09
2023-04-26T11:55:29.549Z,101849.25
2023-04-26T11:57:59.860Z,101844.47
2023-04-26T12:00:28.279Z,101846.81
2023-04-26T12:02:58.356Z,101851.69
2023-04-26T12:05:32.979Z,101846.22
2023-04-26T12:08:01.715Z,101848.25
2023-04-26T12:10:32.545Z,101853.25
2023-04-26T12:13:00.107Z,101851.13
2023-04-26T12:15:31.005Z,101847.16
2023-04-26T12:18:00.060Z,101844.69
2023-04-26T12:20:32.024Z,101846.56
2023-04-26T12:23:02.352Z,101851.25
2023-04-26T12:25:34.259Z,101843.81
2023-04-26T12:28:01.841Z,101841.50
2023-04-26T12:30:29.679Z,101843.69
2023-04-26T12:33:05.830Z,101840.69
2023-04-26T12:35:42.374Z,101842.06
2023-04-26T12:38:10.790Z,101840.41
2023-04-26T12:40:37.903Z,101843.69
2023-04-26T12:43:04.960Z,101847.56
2023-04-26T12:45:31.749Z,101844.91
2023-04-26T12:47:58.876Z,101848.03
2023-04-26T12:50:26.225Z,101849.84
2023-04-26T12:52:53.185Z,101848.72
2023-04-26T12:55:21.405Z,101845.06
2023-04-26T12:57:48.353Z,101848.41
2023-04-26T13:00:21.621Z,101849.56
2023-04-26T13:02:48.692Z,101847.69
2023-04-26T13:05:16.326Z,101848.53
2023-04-26T13:07:44.419Z,101843.41
2023-04-26T13:10:13.203Z,101842.75
2023-04-26T13:12:41.563Z,101838.44
2023-04-26T13:15:09.118Z,101847.59
2023-04-26T13:17:37.507Z,101839.16
2023-04-26T13:20:07.437Z,101840.50
2023-04-26T13:22:34.614Z,101833.88
2023-04-26T13:25:05.773Z,101836.88
2023-04-26T13:27:32.638Z,101843.69
2023-04-26T13:30:01.625Z,101834.06
2023-04-26T13:32:29.392Z,101841.22
2023-04-26T13:34:56.933Z,101837.41
2023-04-26T13:37:24.152Z,101850.56
2023-04-26T13:39:51.160Z,101842.22
2023-04-26T13:42:18.360Z,101840.72
2023-04-26T13:44:45.280Z,101839.22
2023-04-26T13:47:13.529Z,101840.56
2023-04-26T13:49:41.865Z,101840.75
2023-04-26T13:52:08.860Z,101843.56
2023-04-26T13:54:36.883Z,101841.41
2023-04-26T13:57:03.979Z,101840.25
2023-04-26T13:59:31.168Z,101837.44
2023-04-26T14:01:59.805Z,101840.72
2023-04-26T14:04:28.383Z,101837.91
2023-04-26T14:06:55.661Z,101838.91
2023-04-26T14:09:22.449Z,101833.56
2023-04-26T14:11:57.135Z,101833.75
2023-04-26T14:14:34.810Z,101833.09
2023-04-26T14:17:01.795Z,101839.25
2023-04-26T14:19:30.023Z,101833.94
2023-04-26T14:21:56.776Z,101831.44
2023-04-26T14:24:23.636Z,101839.41
2023-04-26T14:26:50.808Z,101833.41
2023-04-26T14:29:17.576Z,101828.59
2023-04-26T14:31:45.083Z,101828.25
2023-04-26T14:34:13.922Z,101828.25
2023-04-26T14:36:42.046Z,101832.56
2023-04-26T14:39:08.854Z,101828.91
2023-04-26T14:41:35.976Z,101836.22
2023-04-26T14:44:02.866Z,101829.38
2023-04-26T14:46:29.714Z,101838.53
2023-04-26T14:48:57.643Z,101838.16
2023-04-26T14:51:24.574Z,101840.47
2023-04-26T14:53:52.705Z,101836.81
2023-04-26T14:56:21.354Z,101839.13
2023-04-26T14:58:48.220Z,101833.78
2023-04-26T15:01:15.032Z,101841.06
2023-04-26T15:03:45.382Z,101836.25
2023-04-26T15:06:13.720Z,101834.09
2023-04-26T15:08:42.096Z,101831.72
2023-04-26T15:11:11.630Z,101833.06
2023-04-26T15:13:38.565Z,101829.72
2023-04-26T15:16:08.032Z,101822.88
2023-04-26T15:18:35.102Z,101819.78
2023-04-26T15:21:01.846Z,101824.56
2023-04-26T15:23:28.616Z,101831.88
2023-04-26T15:25:55.394Z,101821.09
2023-04-26T15:28:24.856Z,101821.78
2023-04-26T15:30:51.762Z,101819.78
2023-04-26T15:33:18.902Z,101828.72
2023-04-26T15:35:46.060Z,101827.22
2023-04-26T15:38:12.884Z,101821.91
2023-04-26T15:40:39.955Z,101817.25
2023-04-26T15:43:07.004Z,101813.44
2023-04-26T15:45:36.811Z,101821.59
2023-04-26T15:48:04.336Z,101815.47
2023-04-26T15:50:31.583Z,101817.50
2023-04-26T15:52:59.493Z,101820.81
2023-04-26T15:55:26.493Z,101820.34
2023-04-26T15:57:53.461Z,101811.34
2023-04-26T16:00:21.358Z,101823.84
2023-04-26T16:02:49.686Z,101825.84
2023-04-26T16:05:17.021Z,101827.66
2023-04-26T16:07:44.024Z,101829.16
2023-04-26T16:10:11.125Z,101826.78
2023-04-26T16:12:39.766Z,101834.44
2023-04-26T16:15:10.499Z,101830.06
2023-04-26T16:17:38.393Z,101833.53
2023-04-26T16:20:08.288Z,101829.97
2023-04-26T16:22:35.866Z,101831.47
2023-04-26T16:25:07.150Z,101834.13
2023-04-26T16:27:35.956Z,101832.28
2023-04-26T16:30:03.936Z,101834.28
2023-04-26T16:32:30.749Z,101837.13
2023-04-26T16:34:59.745Z,101828.31
2023-04-26T16:37:29.358Z,101834.91
2023-04-26T16:39:56.467Z,101832.25
2023-04-26T16:42:23.309Z,101831.13
2023-04-26T16:44:50.034Z,101831.25
2023-04-26T16:47:17.942Z,101829.59
2023-04-26T16:49:44.753Z,101829.59
2023-04-26T16:52:11.571Z,101830.28
2023-04-26T16:54:39.694Z,101826.47
2023-04-26T16:57:06.616Z,101825.66
2023-04-26T16:59:33.445Z,101823.13
2023-04-26T17:02:01.702Z,101828.59
2023-04-26T17:04:30.177Z,101832.09
2023-04-26T17:06:57.235Z,101835.59
2023-04-26T17:09:24.412Z,101837.91
2023-04-26T17:11:54.418Z,101830.38
2023-04-26T17:14:21.259Z,101832.06
2023-04-26T17:16:49.292Z,101831.91
2023-04-26T17:19:16.985Z,101834.41
2023-04-26T17:21:43.697Z,101837.38
2023-04-26T17:24:10.473Z,101839.53
2023-04-26T17:26:37.278Z,101842.19
2023-04-26T17:29:05.464Z,101838.50
2023-04-26T17:31:32.322Z,101837.00
2023-04-26T17:33:59.281Z,101841.66
2023-04-26T17:36:26.784Z,101838.16
2023-04-26T17:38:53.857Z,101836.34
2023-04-26T17:41:22.261Z,101837.63
2023-04-26T17:43:48.970Z,101840.41
2023-04-26T17:46:17.729Z,101845.72
2023-04-26T17:48:44.448Z,101844.59
2023-04-26T17:51:12.063Z,101855.38
2023-04-26T17:53:38.996Z,101848.06
2023-04-26T17:56:07.652Z,101840.81
2023-04-26T17:58:34.518Z,101845.28
2023-04-26T18:01:01.619Z,101853.09
2023-04-26T18:03:30.311Z,101851.44
2023-04-26T18:05:57.301Z,101851.56
2023-04-26T18:08:24.165Z,101853.25
2023-04-26T18:10:53.873Z,101853.03
2023-04-26T18:13:21.079Z,101860.63
2023-04-26T18:15:47.975Z,101857.81
2023-04-26T18:18:14.700Z,101868.75
2023-04-26T18:20:43.072Z,101871.41
2023-04-26T18:23:09.838Z,101871.06
2023-04-26T18:25:37.424Z,101866.19
2023-04-26T18:28:04.365Z,101867.19
2023-04-26T18:30:31.247Z,101864.00
2023-04-26T18:32:58.097Z,101867.78
2023-04-26T18:35:25.312Z,101869.94
2023-04-26T18:37:53.523Z,101864.78
2023-04-26T18:40:20.314Z,101867.75
2023-04-26T18:42:47.094Z,101873.34
2023-04-26T18:45:13.866Z,101875.03
2023-04-26T18:47:41.400Z,101878.16
2023-04-26T18:50:10.153Z,101884.28
2023-04-26T18:52:39.588Z,101883.22
2023-04-26T18:55:08.564Z,101885.22
2023-04-26T18:57:35.263Z,101885.34
2023-04-26T19:00:02.265Z,101885.34
2023-04-26T19:02:30.448Z,101884.81
2023-04-26T19:04:58.068Z,101893.94
2023-04-26T19:07:24.852Z,101887.41
2023-04-26T19:09:54.500Z,101891.66
2023-04-26T19:12:23.025Z,101892.09
2023-04-26T19:14:49.770Z,101892.22
2023-04-26T19:17:16.674Z,101892.56
2023-04-26T19:19:43.527Z,101898.69
2023-04-26T19:22:10.439Z,101898.16
2023-04-26T19:24:37.343Z,101903.78
2023-04-26T19:27:04.669Z,101907.41
2023-04-26T19:29:33.139Z,101910.34
2023-04-26T19:32:04.467Z,101915.81
2023-04-26T19:34:32.907Z,101914.56
2023-04-26T19:36:59.682Z,101915.03
2023-04-26T19:39:26.403Z,101913.50
2023-04-26T19:41:53.424Z,101924.28
2023-04-26T19:44:21.340Z,101924.19
2023-04-26T19:46:49.475Z,101918.19
2023-04-26T19:49:17.621Z,101927.13
2023-04-26T19:51:44.382Z,101925.56
2023-04-26T19:54:11.271Z,101926.72
2023-04-26T19:56:37.949Z,101923.53
2023-04-26T19:59:04.896Z,101932.44
2023-04-26T20:01:32.284Z,101937.09
2023-04-26T20:04:00.717Z,101931.94
2023-04-26T20:06:27.639Z,101936.53
2023-04-26T20:08:54.246Z,101942.66
2023-04-26T20:11:20.932Z,101946.47
2023-04-26T20:13:47.622Z,101939.75
2023-04-26T20:16:14.375Z,101949.84
2023-04-26T20:18:41.392Z,101953.59
2023-04-26T20:21:09.543Z,101954.88
2023-04-26T20:23:36.563Z,101950.41
2023-04-26T20:26:04.790Z,101946.75
2023-04-26T20:28:31.602Z,101948.75
2023-04-26T20:30:58.383Z,101945.41
2023-04-26T20:33:25.252Z,101946.50
2023-04-26T20:35:53.765Z,101951.94
2023-04-26T20:38:21.851Z,101954.75
2023-04-26T20:40:48.797Z,101947.41
2023-04-26T20:43:16.161Z,101950.47
2023-04-26T20:45:42.919Z,101950.06
2023-04-26T20:48:09.735Z,101950.50
2023-04-26T20:50:36.841Z,101948.97
2023-04-26T20:53:04.332Z,101956.50
2023-04-26T20:55:33.886Z,101958.28
2023-04-26T20:58:00.655Z,101947.81
2023-04-26T21:00:27.357Z,101944.47
2023-04-26T21:02:54.301Z,101944.91
2023-04-26T21:05:21.679Z,101938.78
2023-04-26T21:07:48.519Z,101948.81
2023-04-26T21:10:15.394Z,101947.56
2023-04-26T21:12:43.982Z,101946.84
2023-04-26T21:15:11.531Z,101948.69
2023-04-26T21:17:40.703Z,101950.78
2023-04-26T21:20:08.305Z,101950.91
2023-04-26T21:22:34.965Z,101951.34
2023-04-26T21:25:01.796Z,101953.59
2023-04-26T21:27:28.753Z,101947.72
2023-04-26T21:29:56.818Z,101957.75
2023-04-26T21:32:23.533Z,101958.03
2023-04-26T21:34:50.690Z,101959.84
2023-04-26T21:37:17.408Z,101959.44
2023-04-26T21:39:44.548Z,101949.22
2023-04-26T21:42:12.182Z,101958.97
2023-04-26T21:44:38.859Z,101955.78
2023-04-26T21:47:07.096Z,101955.09
2023-04-26T21:49:34.717Z,101953.56
2023-04-26T21:52:01.471Z,101962.63
2023-04-26T21:54:28.207Z,101957.44
2023-04-26T21:56:54.945Z,101964.69
2023-04-26T21:59:21.687Z,101960.38
2023-04-26T22:01:48.423Z,101964.97
2023-04-26T22:04:16.723Z,101960.22
2023-04-26T22:06:43.619Z,101961.19
2023-04-26T22:09:10.473Z,101963.97
2023-04-26T22:11:37.335Z,101959.66
2023-04-26T22:14:04.232Z,101963.28
2023-04-26T22:16:31.917Z,101966.06
2023-04-26T22:18:58.944Z,101969.09
2023-04-26T22:21:28.423Z,101965.06
2023-04-26T22:23:55.206Z,101962.69
2023-04-26T22:26:22.483Z,101964.91
2023-04-26T22:28:49.828Z,101973.09
2023-04-26T22:31:17.119Z,101974.47
2023-04-26T22:33:43.981Z,101972.97
2023-04-26T22:36:12.456Z,101971.53
2023-04-26T22:38:40.849Z,101980.72
2023-04-26T22:41:08.042Z,101983.75
2023-04-26T22:43:35.206Z,101980.56
2023-04-26T22:46:02.225Z,101980.94
2023-04-26T22:48:29.082Z,101975.94
2023-04-26T22:50:55.996Z,101980.50
2023-04-26T22:53:22.779Z,101973.81
2023-04-26T22:55:51.839Z,101975.75
2023-04-26T22:58:18.998Z,101975.88
2023-04-26T23:00:45.797Z,101973.34
2023-04-26T23:03:12.796Z,101984.09
2023-04-26T23:05:39.843Z,101979.88
2023-04-26T23:08:06.734Z,101982.94
2023-04-26T23:10:33.517Z,101978.56
2023-04-26T23:13:02.516Z,101991.31
2023-04-26T23:15:29.297Z,101986.16
2023-04-26T23:17:56.095Z,101988.94
2023-04-26T23:20:23.973Z,101990.72
2023-04-26T23:22:51.038Z,101997.97
2023-04-26T23:25:19.899Z,101992.94
2023-04-26T23:27:47.182Z,102005.16
2023-04-26T23:30:16.376Z,102011.28
2023-04-26T23:32:43.356Z,102009.63
2023-04-26T23:35:11.933Z,102006.25
2023-04-26T23:37:38.762Z,101999.56
2023-04-26T23:40:06.924Z,102000.66
2023-04-26T23:42:33.717Z,102007.75
2023-04-26T23:45:00.643Z,102008.13
2023-04-26T23:47:30.737Z,102016.44
2023-04-26T23:49:57.557Z,102006.84
2023-04-26T23:52:24.291Z,102017.53
2023-04-26T23:54:51.478Z,102010.56
2023-04-26T23:57:18.202Z,102016.69
2023-04-26T23:59:45.089Z,102018.50
